sensor_id;sensor_type;location;lat;lon;timestamp;temperature;humidity
9410;DHT22;4744;52.576;13.568;2023-03-14T00:00:40;12.90;1.00
9410;DHT22;4744;52.576;13.568;2023-03-14T00:03:07;12.90;1.00
9410;DHT22;4744;52.576;13.568;2023-03-14T00:05:34;12.90;1.00
9410;DHT22;4744;52.576;13.568;2023-03-14T00:08:02;12.90;1.00
9410;DHT22;4744;52.576;13.568;2023-03-14T00:10:29;12.80;1.00
9410;DHT22;4744;52.576;13.568;2023-03-14T00:12:56;12.80;1.00
9410;DHT22;4744;52.576;13.568;2023-03-14T00:15:23;12.70;1.00
9410;DHT22;4744;52.576;13.568;2023-03-14T00:17:50;12.70;1.00
9410;DHT22;4744;52.576;13.568;2023-03-14T00:20:17;12.80;1.00
9410;DHT22;4744;52.576;13.568;2023-03-14T00:22:44;12.70;1.00
9410;DHT22;4744;52.576;13.568;2023-03-14T00:25:12;12.60;1.00
9410;DHT22;4744;52.576;13.568;2023-03-14T00:27:39;12.60;1.00
9410;DHT22;4744;52.576;13.568;2023-03-14T00:30:07;12.60;1.00
9410;DHT22;4744;52.576;13.568;2023-03-14T00:32:34;12.70;1.00
9410;DHT22;4744;52.576;13.568;2023-03-14T00:35:01;12.60;1.00
9410;DHT22;4744;52.576;13.568;2023-03-14T00:37:28;12.50;1.00
9410;DHT22;4744;52.576;13.568;2023-03-14T00:39:55;12.50;1.00
9410;DHT22;4744;52.576;13.568;2023-03-14T00:42:25;12.50;1.00
9410;DHT22;4744;52.576;13.568;2023-03-14T00:44:52;12.50;1.00
9410;DHT22;4744;52.576;13.568;2023-03-14T00:47:19;12.40;1.00
9410;DHT22;4744;52.576;13.568;2023-03-14T00:49:46;12.30;1.00
9410;DHT22;4744;52.576;13.568;2023-03-14T00:52:13;12.20;1.00
9410;DHT22;4744;52.576;13.568;2023-03-14T00:54:40;12.20;1.00
9410;DHT22;4744;52.576;13.568;2023-03-14T00:57:07;12.20;1.00
9410;DHT22;4744;52.576;13.568;2023-03-14T00:59:35;12.20;1.00
9410;DHT22;4744;52.576;13.568;2023-03-14T01:02:02;12.20;1.00
9410;DHT22;4744;52.576;13.568;2023-03-14T01:04:29;12.20;1.00
9410;DHT22;4744;52.576;13.568;2023-03-14T01:06:56;12.10;1.00
9410;DHT22;4744;52.576;13.568;2023-03-14T01:09:23;12.20;1.00
9410;DHT22;4744;52.576;13.568;2023-03-14T01:11:50;12.10;1.00
9410;DHT22;4744;52.576;13.568;2023-03-14T01:14:17;12.10;1.00
9410;DHT22;4744;52.576;13.568;2023-03-14T01:16:46;12.10;1.00
9410;DHT22;4744;52.576;13.568;2023-03-14T01:19:13;12.00;1.00
9410;DHT22;4744;52.576;13.568;2023-03-14T01:21:39;12.00;1.00
9410;DHT22;4744;52.576;13.568;2023-03-14T01:24:07;12.00;1.00
9410;DHT22;4744;52.576;13.568;2023-03-14T01:26:35;12.00;1.00
9410;DHT22;4744;52.576;13.568;2023-03-14T01:29:02;12.00;1.00
9410;DHT22;4744;52.576;13.568;2023-03-14T01:31:30;11.90;1.00
9410;DHT22;4744;52.576;13.568;2023-03-14T01:33:58;11.90;1.00
9410;DHT22;4744;52.576;13.568;2023-03-14T01:36:25;11.80;1.00
9410;DHT22;4744;52.576;13.568;2023-03-14T01:38:52;11.80;1.00
9410;DHT22;4744;52.576;13.568;2023-03-14T01:41:21;11.80;1.00
9410;DHT22;4744;52.576;13.568;2023-03-14T01:43:49;11.80;1.00
9410;DHT22;4744;52.576;13.568;2023-03-14T01:46:26;11.90;1.00
9410;DHT22;4744;52.576;13.568;2023-03-14T01:49:16;11.90;1.00
9410;DHT22;4744;52.576;13.568;2023-03-14T01:51:50;11.90;1.00
9410;DHT22;4744;52.576;13.568;2023-03-14T01:54:22;11.90;1.00
9410;DHT22;4744;52.576;13.568;2023-03-14T01:56:56;11.90;1.00
9410;DHT22;4744;52.576;13.568;2023-03-14T01:59:24;12.00;1.00
9410;DHT22;4744;52.576;13.568;2023-03-14T02:01:52;12.00;1.00
9410;DHT22;4744;52.576;13.568;2023-03-14T02:04:22;12.00;1.00
9410;DHT22;4744;52.576;13.568;2023-03-14T02:06:55;12.00;1.00
9410;DHT22;4744;52.576;13.568;2023-03-14T02:09:23;12.00;1.00
9410;DHT22;4744;52.576;13.568;2023-03-14T02:11:50;11.90;1.00
9410;DHT22;4744;52.576;13.568;2023-03-14T02:14:25;12.00;1.00
9410;DHT22;4744;52.576;13.568;2023-03-14T02:16:53;11.90;1.00
9410;DHT22;4744;52.576;13.568;2023-03-14T02:19:29;12.00;1.00
9410;DHT22;4744;52.576;13.568;2023-03-14T02:22:04;12.00;1.00
9410;DHT22;4744;52.576;13.568;2023-03-14T02:24:38;11.90;1.00
9410;DHT22;4744;52.576;13.568;2023-03-14T02:27:09;11.80;1.00
9410;DHT22;4744;52.576;13.568;2023-03-14T02:29:41;11.80;1.00
9410;DHT22;4744;52.576;13.568;2023-03-14T02:32:12;11.80;1.00
9410;DHT22;4744;52.576;13.568;2023-03-14T02:34:41;11.80;1.00
9410;DHT22;4744;52.576;13.568;2023-03-14T02:37:09;11.80;1.00
9410;DHT22;4744;52.576;13.568;2023-03-14T02:39:38;11.80;1.00
9410;DHT22;4744;52.576;13.568;2023-03-14T02:42:07;11.70;1.00
9410;DHT22;4744;52.576;13.568;2023-03-14T02:44:34;11.80;1.00
9410;DHT22;4744;52.576;13.568;2023-03-14T02:47:03;11.70;1.00
9410;DHT22;4744;52.576;13.568;2023-03-14T02:49:32;11.70;1.00
9410;DHT22;4744;52.576;13.568;2023-03-14T02:51:59;11.80;1.00
9410;DHT22;4744;52.576;13.568;2023-03-14T02:54:26;11.70;1.00
9410;DHT22;4744;52.576;13.568;2023-03-14T02:56:53;11.80;1.00
9410;DHT22;4744;52.576;13.568;2023-03-14T02:59:21;11.80;1.00
9410;DHT22;4744;52.576;13.568;2023-03-14T03:01:48;11.80;1.00
9410;DHT22;4744;52.576;13.568;2023-03-14T03:04:15;11.70;1.00
9410;DHT22;4744;52.576;13.568;2023-03-14T03:06:42;11.70;1.00
9410;DHT22;4744;52.576;13.568;2023-03-14T03:09:09;11.70;1.00
9410;DHT22;4744;52.576;13.568;2023-03-14T03:11:36;11.70;1.00
9410;DHT22;4744;52.576;13.568;2023-03-14T03:14:03;11.60;1.00
9410;DHT22;4744;52.576;13.568;2023-03-14T03:16:31;11.60;1.00
9410;DHT22;4744;52.576;13.568;2023-03-14T03:18:58;11.60;1.00
9410;DHT22;4744;52.576;13.568;2023-03-14T03:21:25;11.70;1.00
9410;DHT22;4744;52.576;13.568;2023-03-14T03:23:52;11.50;1.00
9410;DHT22;4744;52.576;13.568;2023-03-14T03:26:19;11.60;1.00
9410;DHT22;4744;52.576;13.568;2023-03-14T03:28:46;11.60;1.00
9410;DHT22;4744;52.576;13.568;2023-03-14T03:31:13;11.50;1.00
9410;DHT22;4744;52.576;13.568;2023-03-14T03:33:41;11.50;1.00
9410;DHT22;4744;52.576;13.568;2023-03-14T03:36:09;11.50;1.00
9410;DHT22;4744;52.576;13.568;2023-03-14T03:38:36;11.50;1.00
9410;DHT22;4744;52.576;13.568;2023-03-14T03:41:04;11.40;1.00
9410;DHT22;4744;52.576;13.568;2023-03-14T03:43:31;11.40;1.00
9410;DHT22;4744;52.576;13.568;2023-03-14T03:45:59;11.30;1.00
9410;DHT22;4744;52.576;13.568;2023-03-14T03:48:28;11.40;1.00
9410;DHT22;4744;52.576;13.568;2023-03-14T03:50:57;11.30;1.00
9410;DHT22;4744;52.576;13.568;2023-03-14T03:53:24;11.30;1.00
9410;DHT22;4744;52.576;13.568;2023-03-14T03:55:51;11.30;1.00
9410;DHT22;4744;52.576;13.568;2023-03-14T03:58:18;11.30;1.00
9410;DHT22;4744;52.576;13.568;2023-03-14T04:00:45;11.30;1.00
9410;DHT22;4744;52.576;13.568;2023-03-14T04:03:11;11.30;1.00
9410;DHT22;4744;52.576;13.568;2023-03-14T04:05:38;11.30;1.00
9410;DHT22;4744;52.576;13.568;2023-03-14T04:08:07;11.30;1.00
9410;DHT22;4744;52.576;13.568;2023-03-14T04:10:34;11.30;1.00
9410;DHT22;4744;52.576;13.568;2023-03-14T04:13:01;11.20;1.00
9410;DHT22;4744;52.576;13.568;2023-03-14T04:15:28;11.20;1.00
9410;DHT22;4744;52.576;13.568;2023-03-14T04:17:57;11.20;1.00
9410;DHT22;4744;52.576;13.568;2023-03-14T04:20:24;11.20;1.00
9410;DHT22;4744;52.576;13.568;2023-03-14T04:22:51;11.20;1.00
9410;DHT22;4744;52.576;13.568;2023-03-14T04:25:19;11.20;1.00
9410;DHT22;4744;52.576;13.568;2023-03-14T04:27:47;11.20;1.00
9410;DHT22;4744;52.576;13.568;2023-03-14T04:30:14;11.20;1.00
9410;DHT22;4744;52.576;13.568;2023-03-14T04:32:41;11.20;1.00
9410;DHT22;4744;52.576;13.568;2023-03-14T04:35:08;11.20;1.00
9410;DHT22;4744;52.576;13.568;2023-03-14T04:37:35;11.20;1.00
9410;DHT22;4744;52.576;13.568;2023-03-14T04:40:03;11.20;1.00
9410;DHT22;4744;52.576;13.568;2023-03-14T04:42:33;11.20;1.00
9410;DHT22;4744;52.576;13.568;2023-03-14T04:45:00;11.20;1.00
9410;DHT22;4744;52.576;13.568;2023-03-14T04:47:27;11.20;1.00
9410;DHT22;4744;52.576;13.568;2023-03-14T04:49:54;11.20;1.00
9410;DHT22;4744;52.576;13.568;2023-03-14T04:52:21;11.20;1.00
9410;DHT22;4744;52.576;13.568;2023-03-14T04:54:48;11.10;1.00
9410;DHT22;4744;52.576;13.568;2023-03-14T04:57:14;11.10;1.00
9410;DHT22;4744;52.576;13.568;2023-03-14T04:59:43;11.10;1.00
9410;DHT22;4744;52.576;13.568;2023-03-14T05:02:10;11.10;1.00
9410;DHT22;4744;52.576;13.568;2023-03-14T05:04:37;11.10;1.00
9410;DHT22;4744;52.576;13.568;2023-03-14T05:07:03;11.10;1.00
9410;DHT22;4744;52.576;13.568;2023-03-14T05:09:30;11.10;1.00
9410;DHT22;4744;52.576;13.568;2023-03-14T05:11:57;11.10;1.00
9410;DHT22;4744;52.576;13.568;2023-03-14T05:14:24;11.00;1.00
9410;DHT22;4744;52.576;13.568;2023-03-14T05:16:53;11.00;1.00
9410;DHT22;4744;52.576;13.568;2023-03-14T05:19:19;11.10;1.00
9410;DHT22;4744;52.576;13.568;2023-03-14T05:21:46;11.10;1.00
9410;DHT22;4744;52.576;13.568;2023-03-14T05:24:13;11.10;1.00
9410;DHT22;4744;52.576;13.568;2023-03-14T05:26:40;11.00;1.00
9410;DHT22;4744;52.576;13.568;2023-03-14T05:29:07;11.10;1.00
9410;DHT22;4744;52.576;13.568;2023-03-14T05:31:34;11.00;1.00
9410;DHT22;4744;52.576;13.568;2023-03-14T05:34:02;11.00;1.00
9410;DHT22;4744;52.576;13.568;2023-03-14T05:36:29;11.00;1.00
9410;DHT22;4744;52.576;13.568;2023-03-14T05:38:56;11.00;1.00
9410;DHT22;4744;52.576;13.568;2023-03-14T05:41:23;11.00;1.00
9410;DHT22;4744;52.576;13.568;2023-03-14T05:43:50;11.00;1.00
9410;DHT22;4744;52.576;13.568;2023-03-14T05:46:18;11.00;1.00
9410;DHT22;4744;52.576;13.568;2023-03-14T05:48:45;11.10;1.00
9410;DHT22;4744;52.576;13.568;2023-03-14T05:51:13;11.00;1.00
9410;DHT22;4744;52.576;13.568;2023-03-14T05:53:40;11.10;1.00
9410;DHT22;4744;52.576;13.568;2023-03-14T05:56:08;11.10;1.00
9410;DHT22;4744;52.576;13.568;2023-03-14T05:58:35;11.10;1.00
9410;DHT22;4744;52.576;13.568;2023-03-14T06:01:02;11.10;1.00
9410;DHT22;4744;52.576;13.568;2023-03-14T06:03:29;11.20;1.00
9410;DHT22;4744;52.576;13.568;2023-03-14T06:05:56;11.10;1.00
9410;DHT22;4744;52.576;13.568;2023-03-14T06:08:24;11.10;1.00
9410;DHT22;4744;52.576;13.568;2023-03-14T06:10:51;11.20;1.00
9410;DHT22;4744;52.576;13.568;2023-03-14T06:13:19;11.20;1.00
9410;DHT22;4744;52.576;13.568;2023-03-14T06:15:46;11.20;1.00
9410;DHT22;4744;52.576;13.568;2023-03-14T06:18:12;11.30;1.00
9410;DHT22;4744;52.576;13.568;2023-03-14T06:20:40;11.30;1.00
9410;DHT22;4744;52.576;13.568;2023-03-14T06:23:08;11.40;1.00
9410;DHT22;4744;52.576;13.568;2023-03-14T06:25:37;11.30;1.00
9410;DHT22;4744;52.576;13.568;2023-03-14T06:28:04;11.40;1.00
9410;DHT22;4744;52.576;13.568;2023-03-14T06:30:31;11.50;1.00
9410;DHT22;4744;52.576;13.568;2023-03-14T06:32:58;11.40;1.00
9410;DHT22;4744;52.576;13.568;2023-03-14T06:35:25;11.40;1.00
9410;DHT22;4744;52.576;13.568;2023-03-14T06:37:52;11.40;1.00
9410;DHT22;4744;52.576;13.568;2023-03-14T06:40:19;11.40;1.00
9410;DHT22;4744;52.576;13.568;2023-03-14T06:42:47;11.40;1.00
9410;DHT22;4744;52.576;13.568;2023-03-14T06:45:15;11.40;1.00
9410;DHT22;4744;52.576;13.568;2023-03-14T06:47:42;11.50;1.00
9410;DHT22;4744;52.576;13.568;2023-03-14T06:50:10;11.50;1.00
9410;DHT22;4744;52.576;13.568;2023-03-14T06:52:37;11.60;1.00
9410;DHT22;4744;52.576;13.568;2023-03-14T06:55:07;11.60;1.00
9410;DHT22;4744;52.576;13.568;2023-03-14T06:57:35;11.70;1.00
9410;DHT22;4744;52.576;13.568;2023-03-14T07:00:04;11.70;1.00
9410;DHT22;4744;52.576;13.568;2023-03-14T07:02:31;11.70;1.00
9410;DHT22;4744;52.576;13.568;2023-03-14T07:04:58;11.80;1.00
9410;DHT22;4744;52.576;13.568;2023-03-14T07:07:26;11.90;1.00
9410;DHT22;4744;52.576;13.568;2023-03-14T07:09:53;11.90;1.00
9410;DHT22;4744;52.576;13.568;2023-03-14T07:12:20;11.90;1.00
9410;DHT22;4744;52.576;13.568;2023-03-14T07:14:47;12.00;1.00
9410;DHT22;4744;52.576;13.568;2023-03-14T07:17:15;12.10;1.00
9410;DHT22;4744;52.576;13.568;2023-03-14T07:19:42;12.20;1.00
9410;DHT22;4744;52.576;13.568;2023-03-14T07:22:08;12.20;1.00
9410;DHT22;4744;52.576;13.568;2023-03-14T07:24:35;12.20;1.00
9410;DHT22;4744;52.576;13.568;2023-03-14T07:27:02;12.20;1.00
9410;DHT22;4744;52.576;13.568;2023-03-14T07:29:29;12.20;1.00
9410;DHT22;4744;52.576;13.568;2023-03-14T07:31:56;12.20;1.00
9410;DHT22;4744;52.576;13.568;2023-03-14T07:34:24;12.30;1.00
9410;DHT22;4744;52.576;13.568;2023-03-14T07:36:51;12.40;1.00
9410;DHT22;4744;52.576;13.568;2023-03-14T07:39:18;12.60;1.00
9410;DHT22;4744;52.576;13.568;2023-03-14T07:41:45;12.80;1.00
9410;DHT22;4744;52.576;13.568;2023-03-14T07:44:12;13.00;1.00
9410;DHT22;4744;52.576;13.568;2023-03-14T07:46:39;12.90;1.00
9410;DHT22;4744;52.576;13.568;2023-03-14T07:49:06;12.80;1.00
9410;DHT22;4744;52.576;13.568;2023-03-14T07:51:34;12.70;1.00
9410;DHT22;4744;52.576;13.568;2023-03-14T07:54:01;12.60;1.00
9410;DHT22;4744;52.576;13.568;2023-03-14T07:56:28;12.60;1.00
9410;DHT22;4744;52.576;13.568;2023-03-14T07:58:54;12.50;1.00
9410;DHT22;4744;52.576;13.568;2023-03-14T08:01:21;12.50;1.00
9410;DHT22;4744;52.576;13.568;2023-03-14T08:03:48;12.50;1.00
9410;DHT22;4744;52.576;13.568;2023-03-14T08:06:15;12.50;1.00
9410;DHT22;4744;52.576;13.568;2023-03-14T08:08:43;12.60;1.00
9410;DHT22;4744;52.576;13.568;2023-03-14T08:11:10;12.70;1.00
9410;DHT22;4744;52.576;13.568;2023-03-14T08:13:37;13.00;1.00
9410;DHT22;4744;52.576;13.568;2023-03-14T08:16:06;13.30;1.00
9410;DHT22;4744;52.576;13.568;2023-03-14T08:18:33;13.60;1.00
9410;DHT22;4744;52.576;13.568;2023-03-14T08:21:00;13.80;1.00
9410;DHT22;4744;52.576;13.568;2023-03-14T08:23:27;13.80;1.00
9410;DHT22;4744;52.576;13.568;2023-03-14T08:25:55;13.60;1.00
9410;DHT22;4744;52.576;13.568;2023-03-14T08:28:22;13.50;1.00
9410;DHT22;4744;52.576;13.568;2023-03-14T08:30:49;13.40;1.00
9410;DHT22;4744;52.576;13.568;2023-03-14T08:33:15;13.30;1.00
9410;DHT22;4744;52.576;13.568;2023-03-14T08:35:42;13.10;1.00
9410;DHT22;4744;52.576;13.568;2023-03-14T08:38:09;13.00;1.00
9410;DHT22;4744;52.576;13.568;2023-03-14T08:40:36;12.90;1.00
9410;DHT22;4744;52.576;13.568;2023-03-14T08:43:05;12.90;1.00
9410;DHT22;4744;52.576;13.568;2023-03-14T08:45:31;12.80;1.00
9410;DHT22;4744;52.576;13.568;2023-03-14T08:47:58;12.70;1.00
9410;DHT22;4744;52.576;13.568;2023-03-14T08:50:25;12.70;1.00
9410;DHT22;4744;52.576;13.568;2023-03-14T08:52:52;12.70;1.00
9410;DHT22;4744;52.576;13.568;2023-03-14T08:55:19;12.70;1.00
9410;DHT22;4744;52.576;13.568;2023-03-14T08:57:46;12.70;1.00
9410;DHT22;4744;52.576;13.568;2023-03-14T09:00:16;12.70;1.00
9410;DHT22;4744;52.576;13.568;2023-03-14T09:02:43;12.70;1.00
9410;DHT22;4744;52.576;13.568;2023-03-14T09:05:11;12.70;1.00
9410;DHT22;4744;52.576;13.568;2023-03-14T09:07:38;12.70;1.00
9410;DHT22;4744;52.576;13.568;2023-03-14T09:10:06;12.70;1.00
9410;DHT22;4744;52.576;13.568;2023-03-14T09:12:33;12.60;1.00
9410;DHT22;4744;52.576;13.568;2023-03-14T09:15:00;12.60;1.00
9410;DHT22;4744;52.576;13.568;2023-03-14T09:17:29;12.60;1.00
9410;DHT22;4744;52.576;13.568;2023-03-14T09:19:56;12.50;1.00
9410;DHT22;4744;52.576;13.568;2023-03-14T09:22:23;12.60;1.00
9410;DHT22;4744;52.576;13.568;2023-03-14T09:24:50;12.70;1.00
9410;DHT22;4744;52.576;13.568;2023-03-14T09:27:16;12.80;1.00
9410;DHT22;4744;52.576;13.568;2023-03-14T09:29:43;13.00;1.00
9410;DHT22;4744;52.576;13.568;2023-03-14T09:32:10;13.30;1.00
9410;DHT22;4744;52.576;13.568;2023-03-14T09:34:38;13.80;1.00
9410;DHT22;4744;52.576;13.568;2023-03-14T09:37:05;14.50;1.00
9410;DHT22;4744;52.576;13.568;2023-03-14T09:39:32;15.10;1.00
9410;DHT22;4744;52.576;13.568;2023-03-14T09:42:03;15.50;1.00
9410;DHT22;4744;52.576;13.568;2023-03-14T09:44:32;16.30;1.00
9410;DHT22;4744;52.576;13.568;2023-03-14T09:47:03;17.10;1.00
9410;DHT22;4744;52.576;13.568;2023-03-14T09:49:33;17.80;1.00
9410;DHT22;4744;52.576;13.568;2023-03-14T09:52:06;18.50;1.00
9410;DHT22;4744;52.576;13.568;2023-03-14T09:54:39;18.30;1.00
9410;DHT22;4744;52.576;13.568;2023-03-14T09:57:12;17.80;1.00
9410;DHT22;4744;52.576;13.568;2023-03-14T09:59:41;17.20;1.00
9410;DHT22;4744;52.576;13.568;2023-03-14T10:02:15;16.40;1.00
9410;DHT22;4744;52.576;13.568;2023-03-14T10:04:45;15.60;1.00
9410;DHT22;4744;52.576;13.568;2023-03-14T10:07:15;15.00;1.00
9410;DHT22;4744;52.576;13.568;2023-03-14T10:09:45;14.50;1.00
9410;DHT22;4744;52.576;13.568;2023-03-14T10:12:14;14.20;1.00
9410;DHT22;4744;52.576;13.568;2023-03-14T10:14:47;14.00;1.00
9410;DHT22;4744;52.576;13.568;2023-03-14T10:17:15;13.90;1.00
9410;DHT22;4744;52.576;13.568;2023-03-14T10:19:53;13.80;1.00
9410;DHT22;4744;52.576;13.568;2023-03-14T10:22:24;13.70;1.00
9410;DHT22;4744;52.576;13.568;2023-03-14T10:24:54;13.70;1.00
9410;DHT22;4744;52.576;13.568;2023-03-14T10:27:23;13.70;1.00
9410;DHT22;4744;52.576;13.568;2023-03-14T10:29:56;13.60;1.00
9410;DHT22;4744;52.576;13.568;2023-03-14T10:32:29;13.60;1.00
9410;DHT22;4744;52.576;13.568;2023-03-14T10:35:07;13.60;1.00
9410;DHT22;4744;52.576;13.568;2023-03-14T10:37:48;13.50;1.00
9410;DHT22;4744;52.576;13.568;2023-03-14T10:40:18;13.60;1.00
9410;DHT22;4744;52.576;13.568;2023-03-14T10:42:46;13.70;1.00
9410;DHT22;4744;52.576;13.568;2023-03-14T10:45:28;13.60;1.00
9410;DHT22;4744;52.576;13.568;2023-03-14T10:47:59;13.70;1.00
9410;DHT22;4744;52.576;13.568;2023-03-14T10:50:31;13.60;1.00
9410;DHT22;4744;52.576;13.568;2023-03-14T10:53:03;13.60;1.00
9410;DHT22;4744;52.576;13.568;2023-03-14T10:55:40;13.50;1.00
9410;DHT22;4744;52.576;13.568;2023-03-14T10:58:21;13.50;1.00
9410;DHT22;4744;52.576;13.568;2023-03-14T11:00:52;13.50;1.00
9410;DHT22;4744;52.576;13.568;2023-03-14T11:03:22;13.50;1.00
9410;DHT22;4744;52.576;13.568;2023-03-14T11:05:53;13.50;1.00
9410;DHT22;4744;52.576;13.568;2023-03-14T11:08:27;13.50;1.00
9410;DHT22;4744;52.576;13.568;2023-03-14T11:11:07;13.50;1.00
9410;DHT22;4744;52.576;13.568;2023-03-14T11:13:41;13.40;1.00
9410;DHT22;4744;52.576;13.568;2023-03-14T11:16:16;13.40;1.00
9410;DHT22;4744;52.576;13.568;2023-03-14T11:19:07;13.40;1.00
9410;DHT22;4744;52.576;13.568;2023-03-14T11:21:42;13.50;1.00
9410;DHT22;4744;52.576;13.568;2023-03-14T11:24:31;13.50;1.00
9410;DHT22;4744;52.576;13.568;2023-03-14T11:27:03;13.50;1.00
9410;DHT22;4744;52.576;13.568;2023-03-14T11:29:37;13.50;1.00
9410;DHT22;4744;52.576;13.568;2023-03-14T11:32:12;13.60;1.00
9410;DHT22;4744;52.576;13.568;2023-03-14T11:34:44;13.50;1.00
9410;DHT22;4744;52.576;13.568;2023-03-14T11:37:19;13.60;1.00
9410;DHT22;4744;52.576;13.568;2023-03-14T11:39:56;13.60;1.00
9410;DHT22;4744;52.576;13.568;2023-03-14T11:42:27;13.60;1.00
9410;DHT22;4744;52.576;13.568;2023-03-14T11:44:55;13.60;1.00
9410;DHT22;4744;52.576;13.568;2023-03-14T11:47:26;13.60;1.00
9410;DHT22;4744;52.576;13.568;2023-03-14T11:50:00;13.70;1.00
9410;DHT22;4744;52.576;13.568;2023-03-14T11:52:33;13.60;1.00
9410;DHT22;4744;52.576;13.568;2023-03-14T11:55:07;13.60;1.00
9410;DHT22;4744;52.576;13.568;2023-03-14T11:57:39;13.60;1.00
9410;DHT22;4744;52.576;13.568;2023-03-14T12:00:16;13.70;1.00
9410;DHT22;4744;52.576;13.568;2023-03-14T12:02:48;13.70;1.00
9410;DHT22;4744;52.576;13.568;2023-03-14T12:08:48;13.80;1.00
9410;DHT22;4744;52.576;13.568;2023-03-14T12:11:30;13.90;1.00
9410;DHT22;4744;52.576;13.568;2023-03-14T12:13:57;13.90;1.00
9410;DHT22;4744;52.576;13.568;2023-03-14T12:16:32;13.90;1.00
9410;DHT22;4744;52.576;13.568;2023-03-14T12:19:14;13.90;1.00
9410;DHT22;4744;52.576;13.568;2023-03-14T12:21:50;14.00;1.00
9410;DHT22;4744;52.576;13.568;2023-03-14T12:24:19;14.00;1.00
9410;DHT22;4744;52.576;13.568;2023-03-14T12:26:53;13.90;1.00
9410;DHT22;4744;52.576;13.568;2023-03-14T12:29:20;13.90;1.00
9410;DHT22;4744;52.576;13.568;2023-03-14T12:31:49;13.90;1.00
9410;DHT22;4744;52.576;13.568;2023-03-14T12:34:27;13.90;1.00
9410;DHT22;4744;52.576;13.568;2023-03-14T12:37:00;13.90;1.00
9410;DHT22;4744;52.576;13.568;2023-03-14T12:39:35;13.80;1.00
9410;DHT22;4744;52.576;13.568;2023-03-14T12:42:09;13.80;1.00
9410;DHT22;4744;52.576;13.568;2023-03-14T12:44:45;13.80;1.00
9410;DHT22;4744;52.576;13.568;2023-03-14T12:50:19;13.80;1.00
9410;DHT22;4744;52.576;13.568;2023-03-14T12:53:03;13.70;1.00
9410;DHT22;4744;52.576;13.568;2023-03-14T12:55:38;13.70;1.00
9410;DHT22;4744;52.576;13.568;2023-03-14T12:58:14;13.80;1.00
9410;DHT22;4744;52.576;13.568;2023-03-14T13:00:54;13.90;1.00
9410;DHT22;4744;52.576;13.568;2023-03-14T13:03:24;13.90;1.00
9410;DHT22;4744;52.576;13.568;2023-03-14T13:05:54;13.80;1.00
9410;DHT22;4744;52.576;13.568;2023-03-14T13:08:35;13.80;1.00
9410;DHT22;4744;52.576;13.568;2023-03-14T13:11:04;13.80;1.00
9410;DHT22;4744;52.576;13.568;2023-03-14T13:13:34;13.80;1.00
9410;DHT22;4744;52.576;13.568;2023-03-14T13:16:03;13.80;1.00
9410;DHT22;4744;52.576;13.568;2023-03-14T13:18:34;13.70;1.00
9410;DHT22;4744;52.576;13.568;2023-03-14T13:21:03;13.60;1.00
9410;DHT22;4744;52.576;13.568;2023-03-14T13:23:34;13.50;1.00
9410;DHT22;4744;52.576;13.568;2023-03-14T13:26:02;13.40;1.00
9410;DHT22;4744;52.576;13.568;2023-03-14T13:28:30;13.30;1.00
9410;DHT22;4744;52.576;13.568;2023-03-14T13:31:01;13.20;1.00
9410;DHT22;4744;52.576;13.568;2023-03-14T13:33:28;13.10;1.00
9410;DHT22;4744;52.576;13.568;2023-03-14T13:35:56;13.10;1.00
9410;DHT22;4744;52.576;13.568;2023-03-14T13:38:25;12.90;1.00
9410;DHT22;4744;52.576;13.568;2023-03-14T13:40:54;12.90;1.00
9410;DHT22;4744;52.576;13.568;2023-03-14T13:43:28;13.00;1.00
9410;DHT22;4744;52.576;13.568;2023-03-14T13:46:03;13.10;1.00
9410;DHT22;4744;52.576;13.568;2023-03-14T13:48:32;13.30;1.00
9410;DHT22;4744;52.576;13.568;2023-03-14T13:51:03;13.50;1.00
9410;DHT22;4744;52.576;13.568;2023-03-14T13:53:31;13.70;1.00
9410;DHT22;4744;52.576;13.568;2023-03-14T13:56:01;13.80;1.00
9410;DHT22;4744;52.576;13.568;2023-03-14T13:58:30;13.90;1.00
9410;DHT22;4744;52.576;13.568;2023-03-14T14:01:01;14.10;1.00
9410;DHT22;4744;52.576;13.568;2023-03-14T14:03:33;14.30;1.00
9410;DHT22;4744;52.576;13.568;2023-03-14T14:06:01;14.40;1.00
9410;DHT22;4744;52.576;13.568;2023-03-14T14:08:28;14.50;1.00
9410;DHT22;4744;52.576;13.568;2023-03-14T14:10:59;14.40;1.00
9410;DHT22;4744;52.576;13.568;2023-03-14T14:13:31;14.30;1.00
9410;DHT22;4744;52.576;13.568;2023-03-14T14:16:00;14.20;1.00
9410;DHT22;4744;52.576;13.568;2023-03-14T14:18:32;14.10;1.00
9410;DHT22;4744;52.576;13.568;2023-03-14T14:21:00;14.30;1.00
9410;DHT22;4744;52.576;13.568;2023-03-14T14:23:28;14.40;1.00
9410;DHT22;4744;52.576;13.568;2023-03-14T14:25:58;14.50;1.00
9410;DHT22;4744;52.576;13.568;2023-03-14T14:28:28;14.60;1.00
9410;DHT22;4744;52.576;13.568;2023-03-14T14:31:16;14.60;1.00
9410;DHT22;4744;52.576;13.568;2023-03-14T14:33:53;14.60;1.00
9410;DHT22;4744;52.576;13.568;2023-03-14T14:36:24;14.60;1.00
9410;DHT22;4744;52.576;13.568;2023-03-14T14:38:53;14.50;1.00
9410;DHT22;4744;52.576;13.568;2023-03-14T14:41:21;14.40;1.00
9410;DHT22;4744;52.576;13.568;2023-03-14T14:43:48;14.30;1.00
9410;DHT22;4744;52.576;13.568;2023-03-14T14:46:19;14.30;1.00
9410;DHT22;4744;52.576;13.568;2023-03-14T14:48:48;14.10;1.00
9410;DHT22;4744;52.576;13.568;2023-03-14T14:51:25;14.10;1.00
9410;DHT22;4744;52.576;13.568;2023-03-14T14:54:09;14.00;1.00
9410;DHT22;4744;52.576;13.568;2023-03-14T14:56:37;13.90;1.00
9410;DHT22;4744;52.576;13.568;2023-03-14T14:59:17;13.90;1.00
9410;DHT22;4744;52.576;13.568;2023-03-14T15:01:45;14.00;1.00
9410;DHT22;4744;52.576;13.568;2023-03-14T15:04:18;13.90;1.00
9410;DHT22;4744;52.576;13.568;2023-03-14T15:06:47;14.00;1.00
9410;DHT22;4744;52.576;13.568;2023-03-14T15:09:16;14.00;1.00
9410;DHT22;4744;52.576;13.568;2023-03-14T15:11:44;14.00;1.00
9410;DHT22;4744;52.576;13.568;2023-03-14T15:14:11;14.00;1.00
9410;DHT22;4744;52.576;13.568;2023-03-14T15:16:40;14.00;1.00
9410;DHT22;4744;52.576;13.568;2023-03-14T15:19:19;13.80;1.00
9410;DHT22;4744;52.576;13.568;2023-03-14T15:21:47;13.70;1.00
9410;DHT22;4744;52.576;13.568;2023-03-14T15:24:15;13.60;1.00
9410;DHT22;4744;52.576;13.568;2023-03-14T15:26:42;13.60;1.00
9410;DHT22;4744;52.576;13.568;2023-03-14T15:29:10;13.50;1.00
9410;DHT22;4744;52.576;13.568;2023-03-14T15:31:38;12.80;1.00
9410;DHT22;4744;52.576;13.568;2023-03-14T15:34:05;12.10;1.00
9410;DHT22;4744;52.576;13.568;2023-03-14T15:36:34;10.00;1.00
9410;DHT22;4744;52.576;13.568;2023-03-14T15:39:04;8.40;1.00
9410;DHT22;4744;52.576;13.568;2023-03-14T15:41:32;7.60;1.00
9410;DHT22;4744;52.576;13.568;2023-03-14T15:43:59;7.10;1.00
9410;DHT22;4744;52.576;13.568;2023-03-14T15:46:26;6.80;1.00
9410;DHT22;4744;52.576;13.568;2023-03-14T15:48:54;6.40;1.00
9410;DHT22;4744;52.576;13.568;2023-03-14T15:51:21;6.10;1.00
9410;DHT22;4744;52.576;13.568;2023-03-14T15:53:48;5.70;1.00
9410;DHT22;4744;52.576;13.568;2023-03-14T15:56:17;5.40;1.00
9410;DHT22;4744;52.576;13.568;2023-03-14T15:58:45;4.90;1.00
9410;DHT22;4744;52.576;13.568;2023-03-14T16:01:14;4.60;1.00
9410;DHT22;4744;52.576;13.568;2023-03-14T16:03:42;4.30;1.00
9410;DHT22;4744;52.576;13.568;2023-03-14T16:06:10;4.10;1.00
9410;DHT22;4744;52.576;13.568;2023-03-14T16:08:37;4.00;1.00
9410;DHT22;4744;52.576;13.568;2023-03-14T16:11:04;3.80;1.00
9410;DHT22;4744;52.576;13.568;2023-03-14T16:13:33;3.60;1.00
9410;DHT22;4744;52.576;13.568;2023-03-14T16:16:01;3.50;1.00
9410;DHT22;4744;52.576;13.568;2023-03-14T16:18:30;3.50;1.00
9410;DHT22;4744;52.576;13.568;2023-03-14T16:21:00;3.30;1.00